Time;durP1;ratioP1;P1;durP2;ratioP2;P2;SDS_P1;SDS_P2;PMS_P1;PMS_P2;Temp;Humidity;BMP_temperature;BMP_pressure;BME280_temperature;BME280_humidity;BME280_pressure;Samples;Min_cycle;Max_cycle;Signal;HPM_P1;HPM_P2
2023/06/23 00:01:21;;;;;;;22.52;12.15;;;;;;;14.19;100.00;101598.81;10403716;28;20064;-77
2023/06/23 00:06:21;;;;;;;17.90;12.95;;;;;;;14.12;100.00;101609.91;10416475;28;20101;-77
2023/06/23 00:11:22;;;;;;;17.70;11.95;;;;;;;14.02;100.00;101624.34;10445225;28;20437;-77
2023/06/23 00:16:22;;;;;;;19.90;14.10;;;;;;;13.93;100.00;101634.47;10396225;28;20095;-77
2023/06/23 00:21:23;;;;;;;19.30;14.45;;;;;;;13.84;100.00;101649.81;10361383;28;20046;-77
2023/06/23 00:26:23;;;;;;;20.55;14.48;;;;;;;13.77;100.00;101654.78;10363003;28;20052;-77
2023/06/23 00:31:24;;;;;;;24.67;13.30;;;;;;;13.65;100.00;101654.22;10361779;28;20034;-78
2023/06/23 00:36:30;;;;;;;29.98;15.57;;;;;;;13.56;100.00;101646.81;10361534;28;20046;-77
2023/06/23 00:41:31;;;;;;;21.23;14.43;;;;;;;13.51;100.00;101654.44;10362276;28;20867;-78
2023/06/23 00:46:31;;;;;;;28.88;19.27;;;;;;;13.45;100.00;101658.53;10361768;28;20066;-78
2023/06/23 00:51:32;;;;;;;28.67;18.83;;;;;;;13.43;100.00;101663.69;10359709;28;20393;-77
2023/06/23 00:56:32;;;;;;;34.85;19.58;;;;;;;13.35;100.00;101663.31;10365344;28;20472;-77
2023/06/23 01:01:33;;;;;;;35.40;20.38;;;;;;;13.35;100.00;101680.78;10413420;28;20112;-77
2023/06/23 01:07:00;;;;;;;42.53;28.38;;;;;;;13.33;100.00;101701.75;10409045;28;20049;-77
2023/06/23 01:12:16;;;;;;;41.50;25.17;;;;;;;13.27;100.00;101703.16;10440877;28;20115;-77
2023/06/23 01:17:23;;;;;;;44.38;25.38;;;;;;;13.29;100.00;101710.31;10430374;28;20045;-76
2023/06/23 01:22:33;;;;;;;43.92;27.27;;;;;;;13.28;100.00;101710.22;10400444;28;20128;-77
2023/06/23 01:27:58;;;;;;;40.47;27.70;;;;;;;13.20;100.00;101718.63;10399935;28;20514;-77
2023/06/23 01:33:09;;;;;;;46.15;29.13;;;;;;;13.14;100.00;101726.22;10402085;28;20041;-77
2023/06/23 01:38:22;;;;;;;42.17;27.38;;;;;;;13.09;100.00;101732.97;10402256;28;20397;-77
2023/06/23 01:43:29;;;;;;;46.78;28.15;;;;;;;12.94;100.00;101746.22;10401152;28;20037;-77
2023/06/23 01:48:31;;;;;;;52.70;27.08;;;;;;;12.92;100.00;101751.38;10370777;28;20535;-77
2023/06/23 01:53:31;;;;;;;55.35;30.80;;;;;;;12.89;100.00;101759.09;10391117;28;20071;-77
2023/06/23 01:58:32;;;;;;;52.95;32.42;;;;;;;12.84;100.00;101762.31;10409396;28;20532;-77
2023/06/23 02:03:33;;;;;;;54.08;30.38;;;;;;;12.86;100.00;101761.56;10390401;28;20037;-77
2023/06/23 02:08:33;;;;;;;56.05;34.08;;;;;;;12.85;100.00;101761.50;10407214;28;20051;-77
2023/06/23 02:13:35;;;;;;;65.30;37.03;;;;;;;12.89;100.00;101763.47;10407126;28;20052;-77
2023/06/23 02:18:36;;;;;;;65.90;35.80;;;;;;;12.86;100.00;101764.19;10415373;28;20044;-77
2023/06/23 02:23:36;;;;;;;60.78;40.17;;;;;;;12.92;100.00;101764.50;10470894;28;20041;-77
2023/06/23 02:28:37;;;;;;;76.55;42.03;;;;;;;12.85;100.00;101782.53;10446808;28;20048;-77
2023/06/23 02:33:37;;;;;;;64.10;40.33;;;;;;;12.84;100.00;101786.84;10448120;28;20053;-77
2023/06/23 02:38:38;;;;;;;75.68;44.67;;;;;;;12.80;100.00;101790.13;10446060;28;20041;-77
2023/06/23 02:43:54;;;;;;;76.32;44.83;;;;;;;12.81;100.00;101798.94;10430110;28;20029;-77
2023/06/23 02:48:58;;;;;;;84.40;47.42;;;;;;;12.86;100.00;101805.34;10419913;28;20034;-77
2023/06/23 02:54:06;;;;;;;90.43;48.45;;;;;;;12.78;100.00;101812.78;10405819;28;20052;-77
2023/06/23 02:59:07;;;;;;;82.43;46.90;;;;;;;12.67;100.00;101814.88;10405212;28;20124;-77
2023/06/23 03:04:07;;;;;;;90.25;54.05;;;;;;;12.65;100.00;101821.75;10387954;28;20052;-76
2023/06/23 03:09:09;;;;;;;106.72;55.33;;;;;;;12.64;100.00;101827.81;10418326;28;20037;-77
2023/06/23 03:14:09;;;;;;;129.47;74.33;;;;;;;12.74;100.00;101834.47;10364692;28;20487;-77
2023/06/23 03:19:27;;;;;;;106.18;55.13;;;;;;;12.75;100.00;101828.38;10362954;28;20164;-77
2023/06/23 03:24:30;;;;;;;101.85;55.33;;;;;;;12.66;100.00;101839.31;10406372;28;20038;-76
2023/06/23 03:29:31;;;;;;;104.68;54.88;;;;;;;12.59;100.00;101848.56;10402966;28;20030;-77
2023/06/23 03:34:43;;;;;;;105.32;53.15;;;;;;;12.58;100.00;101854.63;10367200;28;20389;-78
2023/06/23 03:39:44;;;;;;;106.45;56.83;;;;;;;12.57;100.00;101863.34;10414913;28;20041;-76
2023/06/23 03:44:47;;;;;;;100.07;55.45;;;;;;;12.59;100.00;101864.31;10441026;28;20420;-77
2023/06/23 03:49:52;;;;;;;113.20;59.45;;;;;;;12.58;100.00;101859.88;10364247;28;20033;-76
2023/06/23 03:54:53;;;;;;;99.88;61.22;;;;;;;12.52;100.00;101864.81;10359515;28;20034;-77
2023/06/23 03:59:53;;;;;;;114.70;58.80;;;;;;;12.49;100.00;101864.63;10361315;28;20463;-77
2023/06/23 04:04:54;;;;;;;122.82;62.00;;;;;;;12.51;100.00;101867.34;10416517;28;20048;-77
2023/06/23 04:09:55;;;;;;;110.53;59.33;;;;;;;12.50;100.00;101879.56;10405089;28;20048;-75
2023/06/23 04:14:56;;;;;;;113.15;64.13;;;;;;;12.55;100.00;101874.59;10385239;28;20477;-75
2023/06/23 04:19:57;;;;;;;114.35;62.55;;;;;;;12.62;100.00;101882.88;10401162;28;20058;-75
2023/06/23 04:24:58;;;;;;;123.53;68.85;;;;;;;12.78;100.00;101889.91;10443072;28;20040;-75
2023/06/23 04:29:58;;;;;;;130.05;71.72;;;;;;;12.98;100.00;101897.03;10425300;28;20033;-75
2023/06/23 04:34:59;;;;;;;120.70;65.85;;;;;;;13.03;100.00;101890.31;10368995;28;20366;-75
2023/06/23 04:40:07;;;;;;;123.05;70.80;;;;;;;13.16;100.00;101899.78;10407354;28;20034;-75
2023/06/23 04:45:08;;;;;;;118.10;68.88;;;;;;;13.36;100.00;101916.59;10383376;28;20037;-74
2023/06/23 04:50:11;;;;;;;115.07;65.88;;;;;;;13.48;100.00;101924.28;10421165;28;20448;-74
2023/06/23 04:55:13;;;;;;;117.55;63.35;;;;;;;13.68;100.00;101921.78;10362749;28;20370;-76
2023/06/23 05:00:16;;;;;;;;;;;;;;;13.81;100.00;101921.59;10359569;28;20041;-77
2023/06/23 05:05:21;;;;;;;111.05;60.50;;;;;;;14.01;100.00;101932.22;10438821;28;19927;-76
2023/06/23 05:10:23;;;;;;;94.72;57.72;;;;;;;14.15;100.00;101932.91;10424360;28;20425;-76
2023/06/23 05:15:24;;;;;;;81.20;52.72;;;;;;;14.51;100.00;101946.09;10410248;28;20118;-76
2023/06/23 05:20:24;;;;;;;72.95;45.92;;;;;;;15.03;100.00;101946.81;10446383;28;20071;-76
2023/06/23 05:25:29;;;;;;;64.47;39.53;;;;;;;-147.65;100.00;57646.63;10449299;28;20098;-77
2023/06/23 05:30:30;;;;;;;44.00;33.30;;;;;;;-147.65;100.00;57646.63;10432163;28;20037;-77
2023/06/23 05:35:30;;;;;;;34.88;26.33;;;;;;;-147.65;100.00;57646.63;10449905;28;20041;-77
2023/06/23 05:40:31;;;;;;;27.77;21.45;;;;;;;-147.65;100.00;57646.63;10448451;28;20488;-77
2023/06/23 05:45:32;;;;;;;29.20;22.95;;;;;;;-147.65;100.00;57646.63;10448639;28;20033;-77
2023/06/23 05:50:34;;;;;;;26.20;20.93;;;;;;;-147.65;100.00;57646.63;10432770;28;20029;-77
2023/06/23 05:55:57;;;;;;;31.08;23.88;;;;;;;-147.65;100.00;57646.63;10448070;28;20044;-77
2023/06/23 06:00:58;;;;;;;22.88;20.20;;;;;;;-147.65;100.00;57646.63;10448000;28;20419;-77
2023/06/23 06:05:58;;;;;;;25.93;18.93;;;;;;;-147.65;100.00;57646.63;10447960;28;20037;-78
2023/06/23 06:10:59;;;;;;;27.00;19.70;;;;;;;-147.65;100.00;57646.63;10432006;28;20112;-78
2023/06/23 06:15:59;;;;;;;23.30;20.30;;;;;;;-147.65;100.00;57646.63;10447229;28;20116;-78
2023/06/23 06:21:00;;;;;;;26.93;22.17;;;;;;;-147.65;100.00;57646.63;10447237;28;20029;-78
2023/06/23 06:26:01;;;;;;;24.35;18.95;;;;;;;-147.65;100.00;57646.63;10439605;28;20088;-78
2023/06/23 06:31:01;;;;;;;27.40;22.87;;;;;;;-147.65;100.00;57646.63;10428524;28;20092;-78
2023/06/23 06:36:04;;;;;;;23.50;21.00;;;;;;;-147.65;100.00;57646.63;10446733;28;20064;-78
2023/06/23 06:41:05;;;;;;;28.17;20.67;;;;;;;-147.65;100.00;57646.63;10429725;28;20060;-78
2023/06/23 06:46:06;;;;;;;37.33;22.75;;;;;;;-147.65;100.00;57646.63;10420787;28;20082;-78
2023/06/23 06:51:09;;;;;;;31.83;21.03;;;;;;;-147.65;100.00;57646.63;10369709;28;20037;-77
2023/06/23 06:56:09;;;;;;;27.00;19.10;;;;;;;-147.65;100.00;57646.63;10408112;28;20128;-77
2023/06/23 07:01:11;;;;;;;30.03;21.23;;;;;;;-147.65;100.00;57646.63;10435103;28;20138;-79
2023/06/23 07:06:13;;;;;;;29.67;21.30;;;;;;;-147.65;100.00;57646.63;10389509;28;20129;-79
2023/06/23 07:11:13;;;;;;;23.35;19.15;;;;;;;-147.65;100.00;57646.63;10370818;28;20537;-79
2023/06/23 07:16:14;;;;;;;27.50;17.83;;;;;;;-147.65;100.00;57646.63;10384757;28;20050;-78
2023/06/23 07:21:15;;;;;;;23.27;19.47;;;;;;;-147.65;100.00;57646.63;10365250;28;20128;-78
2023/06/23 07:26:15;;;;;;;21.13;18.80;;;;;;;-147.65;100.00;57646.63;10370126;28;20054;-78
2023/06/23 07:31:16;;;;;;;26.20;16.53;;;;;;;-147.65;100.00;57646.63;10370553;28;20129;-78
2023/06/23 07:36:16;;;;;;;21.63;16.77;;;;;;;-147.65;100.00;57646.63;10378995;28;20172;-78
2023/06/23 07:41:17;;;;;;;16.03;14.33;;;;;;;-147.65;100.00;57646.63;10395510;28;20100;-78
2023/06/23 07:46:17;;;;;;;18.33;12.93;;;;;;;-147.65;100.00;57646.63;10378492;28;20125;-78
2023/06/23 07:51:18;;;;;;;19.87;14.70;;;;;;;-147.65;100.00;57646.63;10364738;28;20121;-79
2023/06/23 07:56:18;;;;;;;;;;;;;;;-147.65;100.00;57646.63;10396550;28;20044;-79
2023/06/23 08:01:19;;;;;;;14.53;10.77;;;;;;;-147.65;100.00;57646.63;10394362;28;19921;-79
2023/06/23 08:06:23;;;;;;;17.65;12.05;;;;;;;-147.65;100.00;57646.63;10395358;28;20471;-78
2023/06/23 08:11:23;;;;;;;14.77;12.98;;;;;;;-147.65;100.00;57646.63;10361479;28;20041;-78
2023/06/23 08:16:24;;;;;;;14.00;10.60;;;;;;;-147.65;100.00;57646.63;10363787;28;20034;-78
2023/06/23 08:21:24;;;;;;;16.30;11.20;;;;;;;-147.65;100.00;57646.63;10400553;28;20487;-78
2023/06/23 08:26:25;;;;;;;17.13;12.43;;;;;;;-147.65;100.00;57646.63;10400555;28;20049;-79
2023/06/23 08:31:26;;;;;;;15.90;12.20;;;;;;;-147.65;100.00;57646.63;10403405;28;22150;-79
2023/06/23 08:36:26;;;;;;;14.20;11.27;;;;;;;-147.65;100.00;57646.63;10399313;28;20037;-78
2023/06/23 08:41:27;;;;;;;18.53;12.37;;;;;;;-147.65;100.00;57646.63;10386947;28;20132;-78
2023/06/23 08:46:30;;;;;;;15.00;10.27;;;;;;;-147.65;100.00;57646.63;10387727;28;20288;-77
2023/06/23 08:51:32;;;;;;;15.40;11.52;;;;;;;-147.65;100.00;57646.63;10402974;28;20395;-78
2023/06/23 08:56:33;;;;;;;17.35;10.35;;;;;;;-147.65;100.00;57646.63;10330702;28;20510;-79
2023/06/23 09:01:33;;;;;;;10.90;8.13;;;;;;;-147.65;100.00;57646.63;10378719;28;20052;-80
2023/06/23 09:06:34;;;;;;;12.18;6.88;;;;;;;-147.65;100.00;57646.63;10413686;28;20049;-85
2023/06/23 09:11:34;;;;;;;10.63;7.17;;;;;;;-147.65;100.00;57646.63;10406031;28;20117;-82
2023/06/23 09:16:36;;;;;;;10.20;7.43;;;;;;;-147.65;100.00;57646.63;10361690;28;20030;-81
2023/06/23 09:21:37;;;;;;;14.40;10.35;;;;;;;-147.65;100.00;57646.63;10410318;28;20338;-82
2023/06/23 09:26:47;;;;;;;12.77;10.57;;;;;;;-147.65;100.00;57646.63;10399054;28;20049;-81
2023/06/23 09:31:48;;;;;;;10.88;8.85;;;;;;;-147.65;100.00;57646.63;10376372;28;20042;-83
2023/06/23 09:36:48;;;;;;;8.57;7.10;;;;;;;-147.65;100.00;57646.63;10413788;28;20095;-81
2023/06/23 09:41:58;;;;;;;;;;;;;;;-147.65;100.00;57646.63;10405347;28;20042;-80
2023/06/23 09:47:02;;;;;;;11.00;7.38;;;;;;;-147.65;100.00;57646.63;10398555;28;19917;-82
2023/06/23 09:52:02;;;;;;;10.90;8.85;;;;;;;-147.65;100.00;57646.63;10399546;28;20266;-81
2023/06/23 09:57:07;;;;;;;;;;;;;;;-147.65;100.00;57646.63;10393962;28;20117;-82
2023/06/23 10:02:09;;;;;;;10.32;6.78;;;;;;;-147.65;100.00;57646.63;10430948;28;20285;-82
2023/06/23 10:07:22;;;;;;;10.13;7.22;;;;;;;-147.65;100.00;57646.63;10406796;28;20099;-80
2023/06/23 10:12:26;;;;;;;7.53;5.15;;;;;;;-147.65;100.00;57646.63;10400972;28;20072;-80
2023/06/23 10:17:26;;;;;;;6.13;3.60;;;;;;;-147.65;100.00;57646.63;10401587;28;20039;-79
2023/06/23 10:22:27;;;;;;;7.28;4.10;;;;;;;-147.65;100.00;57646.63;10424826;28;20492;-81
2023/06/23 10:27:29;;;;;;;10.30;4.63;;;;;;;-147.65;100.00;57646.63;10401761;28;20045;-83
2023/06/23 10:32:30;;;;;;;9.45;6.10;;;;;;;-147.65;100.00;57646.63;10370197;28;20502;-83
2023/06/23 10:37:31;;;;;;;7.25;5.28;;;;;;;-147.65;100.00;57646.63;10416253;28;20045;-83
2023/06/23 10:42:33;;;;;;;;;;;;;;;-147.65;100.00;57646.63;10398321;28;20050;-84
2023/06/23 10:47:34;;;;;;;5.10;3.33;;;;;;;-147.65;100.00;57646.63;10363973;28;20008;-81
2023/06/23 10:52:34;;;;;;;;;;;;;;;-147.65;100.00;57646.63;10385802;28;20033;-82
2023/06/23 10:57:35;;;;;;;6.77;4.37;;;;;;;-147.65;100.00;57646.63;10373107;28;19936;-81
2023/06/23 11:02:53;;;;;;;;;;;;;;;-147.65;100.00;57646.63;10381575;28;20045;-80
2023/06/23 11:08:00;;;;;;;12.02;4.63;;;;;;;-147.65;100.00;57646.63;10391891;28;20281;-81
2023/06/23 11:13:01;;;;;;;5.68;4.20;;;;;;;-147.65;100.00;57646.63;10379303;28;20034;-80
2023/06/23 11:18:02;;;;;;;6.22;4.50;;;;;;;-147.65;100.00;57646.63;10401099;28;20050;-81
2023/06/23 11:23:07;;;;;;;5.50;4.30;;;;;;;-147.65;100.00;57646.63;10402375;28;20045;-82
2023/06/23 11:28:28;;;;;;;5.95;4.53;;;;;;;-147.65;100.00;57646.63;10398256;28;20496;-80
2023/06/23 11:33:33;;;;;;;10.80;5.25;;;;;;;-147.65;100.00;57646.63;10380278;28;20103;-82
2023/06/23 11:38:34;;;;;;;6.88;4.75;;;;;;;-147.65;100.00;57646.63;10418148;28;20038;-79
2023/06/23 11:43:38;;;;;;;6.07;4.22;;;;;;;-147.65;100.00;57646.63;10402472;28;20034;-81
2023/06/23 11:48:42;;;;;;;7.32;4.63;;;;;;;-147.65;100.00;57646.63;10401692;28;20041;-79
2023/06/23 11:53:42;;;;;;;7.10;4.50;;;;;;;-147.65;100.00;57646.63;10369628;28;20180;-80
2023/06/23 11:58:50;;;;;;;;;;;;;;;-147.65;100.00;57646.63;10351303;28;20100;-81
2023/06/23 12:03:52;;;;;;;9.13;4.70;;;;;;;-147.65;100.00;57646.63;10351846;28;19929;-80
2023/06/23 12:08:54;;;;;;;8.02;5.43;;;;;;;-147.65;100.00;57646.63;10386815;28;20037;-83
2023/06/23 12:13:54;;;;;;;;;;;;;;;-147.65;100.00;57646.63;10399279;28;20038;-80
2023/06/23 12:18:55;;;;;;;8.50;5.20;;;;;;;-147.65;100.00;57646.63;10360108;28;19926;-80
2023/06/23 12:23:58;;;;;;;6.80;5.30;;;;;;;-147.65;100.00;57646.63;10417445;28;20048;-80
2023/06/23 12:29:09;;;;;;;5.65;4.10;;;;;;;-147.65;100.00;57646.63;10400031;28;20144;-80
2023/06/23 12:34:10;;;;;;;7.00;4.53;;;;;;;-147.65;100.00;57646.63;10401344;28;20038;-81
2023/06/23 12:39:15;;;;;;;8.52;5.10;;;;;;;-147.65;100.00;57646.63;10399599;28;20075;-80
2023/06/23 12:44:15;;;;;;;7.28;5.32;;;;;;;-147.65;100.00;57646.63;10400948;28;20437;-80
2023/06/23 12:49:16;;;;;;;8.47;4.77;;;;;;;-147.65;100.00;57646.63;10399714;28;20041;-81
2023/06/23 12:54:17;;;;;;;6.18;4.57;;;;;;;-147.65;100.00;57646.63;10401441;28;20480;-81
2023/06/23 12:59:18;;;;;;;10.05;5.32;;;;;;;-147.65;100.00;57646.63;10400624;28;20029;-81
2023/06/23 13:04:19;;;;;;;8.10;6.00;;;;;;;-147.65;100.00;57646.63;10399713;28;20493;-81
2023/06/23 13:09:19;;;;;;;7.93;4.50;;;;;;;-147.65;100.00;57646.63;10399651;28;20481;-81
2023/06/23 13:14:20;;;;;;;7.47;4.80;;;;;;;-147.65;100.00;57646.63;10396992;28;20033;-80
2023/06/23 13:19:20;;;;;;;7.90;5.50;;;;;;;-147.65;100.00;57646.63;10401861;28;20053;-81
2023/06/23 13:24:21;;;;;;;7.87;6.10;;;;;;;-147.65;100.00;57646.63;10399061;28;20041;-80
2023/06/23 13:29:22;;;;;;;9.67;3.97;;;;;;;-147.65;100.00;57646.63;10400197;28;20045;-80
2023/06/23 13:34:23;;;;;;;7.93;4.93;;;;;;;-147.65;100.00;57646.63;10399743;28;20124;-80
2023/06/23 13:39:23;;;;;;;6.90;3.90;;;;;;;-147.65;100.00;57646.63;10400616;28;20067;-81
2023/06/23 13:44:25;;;;;;;6.22;4.07;;;;;;;-147.65;100.00;57646.63;10407155;28;20408;-80
2023/06/23 13:49:26;;;;;;;4.65;3.33;;;;;;;-147.65;100.00;57646.63;10408397;28;20132;-80
2023/06/23 13:54:27;;;;;;;;;;;;;;;-147.65;100.00;57646.63;10406300;28;20515;-81
2023/06/23 13:59:27;;;;;;;6.50;4.80;;;;;;;-147.65;100.00;57646.63;10407267;28;19996;-81
2023/06/23 14:04:28;;;;;;;;;;;;;;;-147.65;100.00;57646.63;10405945;28;20037;-80
2023/06/23 14:09:28;;;;;;;5.93;4.53;;;;;;;-147.65;100.00;57646.63;10408510;28;19917;-82
2023/06/23 14:14:29;;;;;;;5.10;3.60;;;;;;;-147.65;100.00;57646.63;10387853;28;20038;-81
2023/06/23 14:19:29;;;;;;;8.63;4.43;;;;;;;-147.65;100.00;57646.63;10402617;28;20512;-81
2023/06/23 14:24:32;;;;;;;5.90;3.72;;;;;;;-147.65;100.00;57646.63;10405011;28;20045;-81
2023/06/23 14:29:32;;;;;;;5.85;4.07;;;;;;;-147.65;100.00;57646.63;10405047;28;20065;-82
2023/06/23 14:34:33;;;;;;;7.07;4.30;;;;;;;-147.65;100.00;57646.63;10405823;28;20040;-80
2023/06/23 14:39:33;;;;;;;13.88;7.18;;;;;;;-147.65;100.00;57646.63;10404880;28;20034;-81
2023/06/23 14:44:34;;;;;;;8.33;5.03;;;;;;;-147.65;100.00;57646.63;10405238;28;20473;-79
2023/06/23 14:49:35;;;;;;;8.57;5.03;;;;;;;-147.65;100.00;57646.63;10404679;28;20033;-79
2023/06/23 14:54:35;;;;;;;7.53;4.63;;;;;;;-147.65;100.00;57646.63;10405376;28;20044;-81
2023/06/23 14:59:36;;;;;;;5.77;4.63;;;;;;;-147.65;100.00;57646.63;10404482;28;20567;-81
2023/06/23 15:04:36;;;;;;;8.13;4.60;;;;;;;-147.65;100.00;57646.63;10397968;28;20095;-84
2023/06/23 15:09:37;;;;;;;6.87;5.43;;;;;;;-147.65;100.00;57646.63;10380014;28;20121;-83
2023/06/23 15:14:38;;;;;;;8.53;5.20;;;;;;;-147.65;100.00;57646.63;10376989;28;20036;-83
2023/06/23 15:19:39;;;;;;;9.68;5.47;;;;;;;-147.65;100.00;57646.63;10397137;28;20157;-81
2023/06/23 15:24:39;;;;;;;7.03;5.10;;;;;;;-147.65;100.00;57646.63;10389268;28;20485;-82
2023/06/23 15:29:40;;;;;;;8.03;4.83;;;;;;;-147.65;100.00;57646.63;10335350;28;20419;-83
2023/06/23 15:34:40;;;;;;;9.30;5.03;;;;;;;-147.65;100.00;57646.63;10388220;28;20043;-81
2023/06/23 15:39:41;;;;;;;9.17;5.70;;;;;;;-147.65;100.00;57646.63;10398739;28;20437;-79
2023/06/23 15:44:41;;;;;;;8.87;4.93;;;;;;;-147.65;100.00;57646.63;10390971;28;20063;-78
2023/06/23 15:49:42;;;;;;;11.67;6.10;;;;;;;-147.65;100.00;57646.63;10408347;28;20030;-80
2023/06/23 15:54:42;;;;;;;6.93;4.60;;;;;;;-147.65;100.00;57646.63;10411461;28;20060;-81
2023/06/23 15:59:46;;;;;;;7.97;5.23;;;;;;;-147.65;100.00;57646.63;10435404;28;20063;-80
2023/06/23 16:04:47;;;;;;;7.40;5.43;;;;;;;-147.65;100.00;57646.63;10412385;28;20489;-83
2023/06/23 16:09:47;;;;;;;42.47;38.03;;;;;;;-147.65;100.00;57646.63;10406206;28;20099;-81
2023/06/23 16:14:48;;;;;;;7.97;5.87;;;;;;;-147.65;100.00;57646.63;10412776;28;20068;-81
2023/06/23 16:19:49;;;;;;;9.10;5.03;;;;;;;-147.65;100.00;57646.63;10372208;28;20042;-80
2023/06/23 16:24:50;;;;;;;7.85;5.03;;;;;;;-147.65;100.00;57646.63;10417644;28;20104;-80
2023/06/23 16:29:50;;;;;;;8.77;5.17;;;;;;;-147.65;100.00;57646.63;10398064;28;20041;-80
2023/06/23 16:34:58;;;;;;;6.00;5.40;;;;;;;-147.65;100.00;57646.63;10412335;28;20052;-84
2023/06/23 16:39:58;;;;;;;7.07;5.57;;;;;;;-147.65;100.00;57646.63;10412559;28;20033;-87
2023/06/23 16:44:59;;;;;;;5.43;4.53;;;;;;;-147.65;100.00;57646.63;10391584;28;20065;-81
2023/06/23 16:50:00;;;;;;;8.80;5.90;;;;;;;-147.65;100.00;57646.63;10398936;28;20042;-80
2023/06/23 16:55:01;;;;;;;8.80;5.30;;;;;;;-147.65;100.00;57646.63;10390527;28;20393;-81
2023/06/23 17:00:07;;;;;;;7.55;5.15;;;;;;;-147.65;100.00;57646.63;10359169;28;20049;-81
2023/06/23 17:05:07;;;;;;;6.00;4.75;;;;;;;-147.65;100.00;57646.63;10376474;28;20103;-81
2023/06/23 17:10:08;;;;;;;7.37;5.53;;;;;;;-147.65;100.00;57646.63;10383163;28;20616;-80
2023/06/23 17:15:09;;;;;;;7.18;5.40;;;;;;;-147.65;100.00;57646.63;10373809;28;20042;-80
2023/06/23 17:20:10;;;;;;;7.13;5.67;;;;;;;-147.65;100.00;57646.63;10315161;28;20042;-80
2023/06/23 17:25:12;;;;;;;8.50;5.23;;;;;;;-147.65;100.00;57646.63;10327941;28;20408;-80
2023/06/23 17:30:12;;;;;;;7.63;5.78;;;;;;;-147.65;100.00;57646.63;10370694;28;20275;-80
2023/06/23 17:35:13;;;;;;;9.00;5.50;;;;;;;-147.65;100.00;57646.63;10368765;28;20048;-80
2023/06/23 17:40:13;;;;;;;7.03;5.00;;;;;;;-147.65;100.00;57646.63;10396307;28;20037;-80
2023/06/23 17:45:14;;;;;;;13.20;7.60;;;;;;;-147.65;100.00;57646.63;10427039;28;20381;-79
2023/06/23 17:50:15;;;;;;;6.87;5.03;;;;;;;-147.65;100.00;57646.63;10428108;28;20033;-80
2023/06/23 17:55:15;;;;;;;6.63;5.53;;;;;;;-147.65;100.00;57646.63;10409529;28;20053;-81
2023/06/23 18:00:16;;;;;;;11.77;6.33;;;;;;;-147.65;100.00;57646.63;10374873;28;20045;-80
2023/06/23 18:05:17;;;;;;;7.70;6.57;;;;;;;-147.65;100.00;57646.63;10378222;28;20041;-81
2023/06/23 18:10:17;;;;;;;9.77;4.80;;;;;;;-147.65;100.00;57646.63;10388995;28;20068;-80
2023/06/23 18:15:18;;;;;;;7.10;5.53;;;;;;;-147.65;100.00;57646.63;10427480;28;20033;-80
2023/06/23 18:20:18;;;;;;;6.67;5.87;;;;;;;-147.65;100.00;57646.63;10426474;28;20048;-80
2023/06/23 18:25:19;;;;;;;9.67;6.47;;;;;;;-147.65;100.00;57646.63;10364605;28;20445;-80
2023/06/23 18:30:20;;;;;;;8.40;5.40;;;;;;;-147.65;100.00;57646.63;10365345;28;20053;-80
2023/06/23 18:35:20;;;;;;;11.98;8.32;;;;;;;-147.65;100.00;57646.63;10397329;28;20127;-79
2023/06/23 18:40:21;;;;;;;12.68;8.00;;;;;;;-147.65;100.00;57646.63;10382257;28;20053;-80
2023/06/23 18:45:23;;;;;;;8.85;7.35;;;;;;;-147.65;100.00;57646.63;10405316;28;20045;-78
2023/06/23 18:50:23;;;;;;;9.85;6.88;;;;;;;-147.65;100.00;57646.63;10406667;28;20099;-79
2023/06/23 18:55:24;;;;;;;9.77;6.90;;;;;;;-147.65;100.00;57646.63;10403807;28;20111;-80
2023/06/23 19:00:24;;;;;;;9.60;6.88;;;;;;;-147.65;100.00;57646.63;10386998;28;20405;-80
2023/06/23 19:05:25;;;;;;;10.30;7.15;;;;;;;-147.65;100.00;57646.63;10426003;28;20044;-81
2023/06/23 19:10:25;;;;;;;9.80;6.78;;;;;;;-147.65;100.00;57646.63;10414553;28;20535;-80
2023/06/23 19:15:26;;;;;;;18.88;9.40;;;;;;;-147.65;100.00;57646.63;10427181;28;20184;-80
2023/06/23 19:20:27;;;;;;;10.52;8.45;;;;;;;-147.65;100.00;57646.63;10393372;28;20040;-79
2023/06/23 19:25:28;;;;;;;9.30;8.07;;;;;;;-147.65;100.00;57646.63;10403730;28;20046;-78
2023/06/23 19:30:29;;;;;;;10.07;7.43;;;;;;;-147.65;100.00;57646.63;10403833;28;20653;-79
2023/06/23 19:35:29;;;;;;;9.80;7.95;;;;;;;-147.65;100.00;57646.63;10404482;28;20102;-81
2023/06/23 19:40:30;;;;;;;10.93;7.43;;;;;;;-147.65;100.00;57646.63;10399420;28;20114;-80
2023/06/23 19:45:31;;;;;;;10.77;8.30;;;;;;;-147.65;100.00;57646.63;10401265;28;20428;-81
2023/06/23 19:50:32;;;;;;;15.57;8.30;;;;;;;-147.65;100.00;57646.63;10402486;28;20037;-80
2023/06/23 19:55:32;;;;;;;8.50;7.53;;;;;;;-147.65;100.00;57646.63;10402176;28;20065;-80
2023/06/23 20:00:33;;;;;;;12.07;7.80;;;;;;;-147.65;100.00;57646.63;10395670;28;20104;-80
2023/06/23 20:05:33;;;;;;;9.10;7.60;;;;;;;-147.65;100.00;57646.63;10384566;28;20044;-81
2023/06/23 20:10:35;;;;;;;10.18;7.32;;;;;;;-147.65;100.00;57646.63;10404557;28;20128;-80
2023/06/23 20:15:35;;;;;;;12.55;9.32;;;;;;;-147.65;100.00;57646.63;10416527;28;20079;-80
2023/06/23 20:20:36;;;;;;;14.20;9.88;;;;;;;-147.65;100.00;57646.63;10383968;28;20041;-79
2023/06/23 20:25:36;;;;;;;17.73;9.27;;;;;;;-147.65;100.00;57646.63;10382523;28;20044;-78
2023/06/23 20:30:38;;;;;;;17.03;9.77;;;;;;;-147.65;100.00;57646.63;10398613;28;20160;-79
2023/06/23 20:35:42;;;;;;;11.48;8.00;;;;;;;-147.65;100.00;57646.63;10413118;28;20045;-80
2023/06/23 20:40:43;;;;;;;11.73;8.55;;;;;;;-147.65;100.00;57646.63;10388512;28;20069;-80
2023/06/23 20:45:43;;;;;;;11.07;7.85;;;;;;;-147.65;100.00;57646.63;10403186;28;20033;-79
2023/06/23 20:50:44;;;;;;;12.63;9.65;;;;;;;-147.65;100.00;57646.63;10411464;28;20396;-80
2023/06/23 20:55:44;;;;;;;14.20;9.52;;;;;;;-147.65;100.00;57646.63;10390924;28;20053;-80
2023/06/23 21:00:45;;;;;;;13.93;9.00;;;;;;;-147.65;100.00;57646.63;10420990;28;20045;-80
2023/06/23 21:05:46;;;;;;;12.98;8.68;;;;;;;-147.65;100.00;57646.63;10428494;28;20543;-80
2023/06/23 21:10:46;;;;;;;22.60;9.80;;;;;;;-147.65;100.00;57646.63;10406434;28;20470;-79
2023/06/23 21:15:47;;;;;;;13.95;9.60;;;;;;;-147.65;100.00;57646.63;10397620;28;20114;-80
2023/06/23 21:20:47;;;;;;;10.95;8.30;;;;;;;-147.65;100.00;57646.63;10414151;28;20144;-80
2023/06/23 21:25:48;;;;;;;11.30;9.60;;;;;;;-147.65;100.00;57646.63;10397386;28;20077;-80
2023/06/23 21:30:48;;;;;;;17.77;11.23;;;;;;;-147.65;100.00;57646.63;10423305;28;20190;-80
2023/06/23 21:35:51;;;;;;;11.13;7.85;;;;;;;-147.65;100.00;57646.63;10432201;28;20037;-80
2023/06/23 21:40:51;;;;;;;13.07;9.38;;;;;;;-147.65;100.00;57646.63;10417876;28;20083;-80
2023/06/23 21:45:52;;;;;;;17.25;10.85;;;;;;;-147.65;100.00;57646.63;10404200;28;20473;-80
2023/06/23 21:50:52;;;;;;;13.18;9.25;;;;;;;-147.65;100.00;57646.63;10388994;28;20037;-80
2023/06/23 21:55:53;;;;;;;10.63;8.05;;;;;;;-147.65;100.00;57646.63;10397753;28;20501;-81
2023/06/23 22:00:54;;;;;;;14.52;9.65;;;;;;;-147.65;100.00;57646.63;10402901;28;20037;-79
2023/06/23 22:05:54;;;;;;;14.45;12.07;;;;;;;-147.65;100.00;57646.63;10406978;28;20079;-80
2023/06/23 22:10:55;;;;;;;15.02;12.25;;;;;;;-147.65;100.00;57646.63;10438026;28;20106;-80
2023/06/23 22:15:56;;;;;;;14.40;11.27;;;;;;;-147.65;100.00;57646.63;10407746;28;20055;-80
2023/06/23 22:20:57;;;;;;;18.08;12.80;;;;;;;-147.65;100.00;57646.63;10424909;28;20033;-80
2023/06/23 22:25:58;;;;;;;17.20;13.38;;;;;;;-147.65;100.00;57646.63;10422844;28;20042;-80